Time;durP1;ratioP1;P1;durP2;ratioP2;P2;SDS_P1;SDS_P2;PMS_P1;PMS_P2;Temp;Humidity;BMP_temperature;BMP_pressure;BME280_temperature;BME280_humidity;BME280_pressure;Samples;Min_cycle;Max_cycle;Signal;HPM_P1;HPM_P2
2024/01/28 00:00:15;;;;;;;4.90;2.00;;;;;;;3.65;49.95;95947.16;5065501;28;20113;-74
2024/01/28 00:02:41;;;;;;;4.60;2.10;;;;;;;3.57;49.76;95944.72;5066472;28;20159;-74
2024/01/28 00:05:06;;;;;;;4.38;2.08;;;;;;;3.59;50.00;95943.19;5064250;28;20099;-73
2024/01/28 00:07:31;;;;;;;4.93;2.10;;;;;;;3.52;49.95;95942.31;5066094;28;20033;-74
2024/01/28 00:09:57;;;;;;;5.28;1.85;;;;;;;3.46;50.28;95953.50;5066036;28;20487;-74
2024/01/28 00:12:22;;;;;;;2.97;1.63;;;;;;;3.40;50.66;95956.91;5067380;28;20063;-73
2024/01/28 00:14:48;;;;;;;4.88;2.08;;;;;;;3.52;50.33;95953.19;5064679;28;20035;-74
2024/01/28 00:17:14;;;;;;;3.95;1.75;;;;;;;3.51;50.34;95940.75;5067126;28;20056;-73
2024/01/28 00:19:39;;;;;;;5.15;2.30;;;;;;;3.53;50.25;95949.31;5065718;28;20035;-74
2024/01/28 00:22:04;;;;;;;3.72;1.70;;;;;;;3.47;50.58;95952.34;5066133;28;20476;-73
2024/01/28 00:24:30;;;;;;;2.75;1.30;;;;;;;3.47;50.69;95965.16;5067328;28;20028;-73
2024/01/28 00:26:55;;;;;;;4.50;1.98;;;;;;;3.45;50.74;95959.31;5047621;28;20029;-73
2024/01/28 00:29:28;;;;;;;3.53;1.63;;;;;;;3.45;50.79;95962.03;5066990;28;20075;-74
2024/01/28 00:31:54;;;;;;;3.92;1.90;;;;;;;3.46;50.94;95967.09;5064506;28;20487;-74
2024/01/28 00:34:20;;;;;;;3.90;1.85;;;;;;;3.47;50.97;95968.66;5067045;28;20032;-74
2024/01/28 00:36:45;;;;;;;4.72;2.15;;;;;;;3.56;50.92;95970.34;5066618;28;20025;-73
2024/01/28 00:39:13;;;;;;;4.80;1.90;;;;;;;3.51;51.13;95971.44;5064780;28;20107;-74
2024/01/28 00:41:39;;;;;;;5.35;2.50;;;;;;;3.51;51.13;95976.88;5067311;28;20021;-74
2024/01/28 00:44:04;;;;;;;3.55;1.90;;;;;;;3.49;51.27;95972.94;5064097;28;20044;-75
2024/01/28 00:46:31;;;;;;;6.40;2.35;;;;;;;3.47;51.32;95973.31;5067191;28;20024;-74
2024/01/28 00:48:57;;;;;;;6.35;2.20;;;;;;;3.36;51.62;95967.72;5065442;28;20124;-74
2024/01/28 00:51:22;;;;;;;2.20;1.80;;;;;;;3.37;51.72;95974.72;5066855;28;20123;-74
2024/01/28 00:53:48;;;;;;;3.45;2.20;;;;;;;3.32;51.85;95972.31;5066391;28;20034;-73
2024/01/28 00:56:16;;;;;;;5.30;2.22;;;;;;;3.28;51.94;95970.69;5066354;28;20111;-72
2024/01/28 00:58:42;;;;;;;3.42;2.05;;;;;;;3.27;52.02;95972.63;5066831;28;20036;-74
2024/01/28 01:01:07;;;;;;;5.90;2.65;;;;;;;3.26;52.04;95981.91;5065463;28;20021;-74
2024/01/28 01:03:33;;;;;;;3.75;2.00;;;;;;;3.31;51.96;95983.53;5049065;28;20452;-75
2024/01/28 01:05:58;;;;;;;4.88;2.00;;;;;;;3.29;52.13;95989.34;5065488;28;20533;-73
2024/01/28 01:08:24;;;;;;;4.93;2.28;;;;;;;3.16;52.43;95998.84;5066691;28;20032;-75
2024/01/28 01:10:50;;;;;;;3.90;2.47;;;;;;;3.26;52.36;95994.72;5047290;28;20028;-74
2024/01/28 01:13:15;;;;;;;3.80;1.95;;;;;;;3.19;52.55;95989.97;5065346;28;20470;-74
2024/01/28 01:15:41;;;;;;;3.20;2.00;;;;;;;3.14;52.57;95990.25;5067839;28;20039;-73
2024/01/28 01:18:07;;;;;;;3.55;2.00;;;;;;;3.07;53.03;95995.56;5068326;28;20024;-73
2024/01/28 01:20:33;;;;;;;4.88;2.45;;;;;;;3.05;53.12;95995.16;5069580;28;20032;-75
2024/01/28 01:22:58;;;;;;;5.05;2.22;;;;;;;3.08;53.15;95991.72;5051141;28;20112;-73
2024/01/28 01:25:24;;;;;;;6.85;2.50;;;;;;;3.12;52.92;95990.63;5069208;28;20096;-75
2024/01/28 01:27:52;;;;;;;6.43;2.40;;;;;;;3.06;53.33;95991.28;5051026;28;20035;-75
2024/01/28 01:30:17;;;;;;;4.78;2.30;;;;;;;3.05;53.39;95993.22;5070232;28;20074;-73
2024/01/28 01:32:43;;;;;;;4.65;2.13;;;;;;;3.03;53.44;95987.34;5068477;28;20426;-74
2024/01/28 01:35:09;;;;;;;4.30;2.47;;;;;;;3.12;53.45;95993.34;5068166;28;20488;-73
2024/01/28 01:37:34;;;;;;;6.28;2.42;;;;;;;3.13;53.34;95994.13;5052312;28;20033;-74
2024/01/28 01:40:00;;;;;;;5.03;2.40;;;;;;;3.11;53.29;95985.56;5067386;28;20024;-75
2024/01/28 01:42:26;;;;;;;4.40;2.45;;;;;;;3.00;53.73;95987.31;5068819;28;20103;-73
2024/01/28 01:44:52;;;;;;;5.57;2.53;;;;;;;3.02;53.64;95985.78;5067393;28;20028;-73
2024/01/28 01:47:18;;;;;;;6.13;3.40;;;;;;;3.03;53.61;95975.72;5068410;28;20028;-75
2024/01/28 01:49:44;;;;;;;4.53;2.00;;;;;;;3.02;53.74;95983.06;5067519;28;20100;-73
2024/01/28 01:52:09;;;;;;;5.38;2.63;;;;;;;3.04;53.67;95985.44;5068621;28;20029;-73
2024/01/28 01:54:35;;;;;;;3.95;3.50;;;;;;;3.04;53.63;95982.72;5068424;28;20033;-75
2024/01/28 01:57:01;;;;;;;5.22;2.33;;;;;;;3.06;53.68;95989.38;5067585;28;20028;-75
2024/01/28 01:59:27;;;;;;;6.03;2.47;;;;;;;3.08;53.39;95983.56;5051727;28;20483;-75
2024/01/28 02:01:54;;;;;;;3.95;2.30;;;;;;;3.03;53.48;95994.72;5066914;28;20117;-73
2024/01/28 02:04:21;;;;;;;3.63;3.03;;;;;;;3.11;53.32;95991.00;5068450;28;20052;-74
2024/01/28 02:06:46;;;;;;;4.57;2.58;;;;;;;3.06;53.22;96000.22;5067038;28;20491;-74
2024/01/28 02:09:12;;;;;;;3.97;2.25;;;;;;;3.02;53.46;96001.31;5068391;28;20059;-74
2024/01/28 02:11:37;;;;;;;4.53;2.30;;;;;;;3.03;53.34;96019.97;5069231;28;20035;-74
2024/01/28 02:14:03;;;;;;;7.50;2.63;;;;;;;2.96;53.51;96013.63;5051339;28;20467;-74
2024/01/28 02:16:28;;;;;;;3.63;2.00;;;;;;;2.97;53.52;96013.25;5051542;28;20475;-74
2024/01/28 02:18:54;;;;;;;5.72;2.22;;;;;;;2.85;53.76;96003.34;5068258;28;20032;-73
2024/01/28 02:21:19;;;;;;;5.03;2.30;;;;;;;2.76;53.91;95996.59;5069460;28;20346;-75
2024/01/28 02:23:45;;;;;;;5.90;3.38;;;;;;;2.86;53.89;96009.56;5068137;28;20029;-74
2024/01/28 02:26:10;;;;;;;6.28;2.45;;;;;;;2.91;53.50;96001.91;5067486;28;20033;-74
2024/01/28 02:28:35;;;;;;;4.32;2.20;;;;;;;2.93;52.80;96015.94;5066913;28;20490;-74
2024/01/28 02:31:01;;;;;;;4.65;2.63;;;;;;;2.90;53.72;96008.50;5068023;28;20494;-74
2024/01/28 02:33:26;;;;;;;4.57;2.78;;;;;;;2.83;53.90;96013.81;5067645;28;20029;-74
2024/01/28 02:35:52;;;;;;;5.82;2.30;;;;;;;2.89;53.75;96017.78;5068290;28;20172;-74
2024/01/28 02:38:17;;;;;;;7.05;2.85;;;;;;;2.84;53.76;96018.09;5069072;28;20425;-73
2024/01/28 02:40:43;;;;;;;6.50;2.58;;;;;;;2.80;53.90;96030.81;5066490;28;20029;-74
2024/01/28 02:43:08;;;;;;;4.78;2.42;;;;;;;2.83;53.84;96026.59;5051346;28;20127;-74
2024/01/28 02:45:34;;;;;;;3.22;2.38;;;;;;;2.79;54.13;96028.44;5066113;28;20337;-75
2024/01/28 02:47:59;;;;;;;5.78;3.03;;;;;;;2.79;54.16;96031.16;5068856;28;20094;-74
2024/01/28 02:50:24;;;;;;;5.13;2.53;;;;;;;2.81;54.31;96024.25;5066860;28;20050;-73
2024/01/28 02:52:50;;;;;;;8.10;3.35;;;;;;;2.85;54.01;96029.72;5066988;28;20039;-74
2024/01/28 02:55:15;;;;;;;5.32;2.85;;;;;;;2.85;53.82;96033.22;5068807;28;20025;-74
2024/01/28 02:57:41;;;;;;;5.00;3.10;;;;;;;2.90;53.78;96029.44;5066203;28;20033;-74
2024/01/28 03:00:06;;;;;;;4.38;3.40;;;;;;;2.92;53.92;96040.72;5067763;28;20024;-74
2024/01/28 03:02:32;;;;;;;4.40;3.35;;;;;;;2.91;53.87;96036.44;5065929;28;20460;-74
2024/01/28 03:04:57;;;;;;;4.55;3.00;;;;;;;2.89;53.95;96044.16;5067573;28;20396;-75
2024/01/28 03:07:23;;;;;;;5.03;3.08;;;;;;;3.00;53.69;96055.22;5049008;28;20488;-73
2024/01/28 03:09:48;;;;;;;6.20;3.00;;;;;;;3.01;53.61;96054.88;5068507;28;20081;-74
2024/01/28 03:12:14;;;;;;;7.20;2.75;;;;;;;3.00;53.58;96056.00;5068060;28;20502;-74
2024/01/28 03:14:39;;;;;;;4.05;2.72;;;;;;;3.00;53.60;96055.22;5067633;28;20024;-73
2024/01/28 03:17:05;;;;;;;7.55;2.75;;;;;;;2.93;53.74;96058.59;5067327;28;20033;-75
2024/01/28 03:19:30;;;;;;;3.42;2.45;;;;;;;3.02;53.60;96063.78;5065396;28;20036;-74
2024/01/28 03:21:55;;;;;;;3.13;2.28;;;;;;;2.91;53.82;96058.94;5068867;28;20112;-73
2024/01/28 03:24:22;;;;;;;7.35;2.78;;;;;;;2.83;53.99;96067.34;5066687;28;20104;-73
2024/01/28 03:26:47;;;;;;;3.35;2.60;;;;;;;2.81;54.11;96067.69;5068460;28;20071;-74
2024/01/28 03:29:12;;;;;;;6.53;3.13;;;;;;;2.73;54.37;96068.69;5067221;28;20500;-74
2024/01/28 03:31:40;;;;;;;4.15;2.60;;;;;;;2.73;54.40;96060.53;5067719;28;20035;-74
2024/01/28 03:34:05;;;;;;;5.60;2.80;;;;;;;2.71;54.43;96062.84;5066922;28;20139;-74
2024/01/28 03:36:31;;;;;;;5.13;2.85;;;;;;;2.68;54.59;96060.84;5066502;28;20111;-73
2024/01/28 03:38:56;;;;;;;5.25;2.58;;;;;;;2.71;54.56;96062.84;5065553;28;20058;-74
2024/01/28 03:41:22;;;;;;;8.00;2.75;;;;;;;2.64;54.70;96054.56;5065106;28;20024;-74
2024/01/28 03:43:47;;;;;;;4.75;2.78;;;;;;;2.55;55.01;96064.84;5066917;28;20383;-74
2024/01/28 03:46:13;;;;;;;8.10;3.70;;;;;;;2.60;54.85;96064.56;5065222;28;20119;-74
2024/01/28 03:48:38;;;;;;;4.72;2.65;;;;;;;2.58;55.04;96062.22;5049469;28;20040;-74
2024/01/28 03:51:04;;;;;;;4.20;2.45;;;;;;;2.47;55.31;96080.22;5066095;28;20047;-74
2024/01/28 03:53:30;;;;;;;4.60;2.80;;;;;;;2.49;55.29;96082.56;5065274;28;20104;-73
2024/01/28 03:55:55;;;;;;;6.55;2.92;;;;;;;2.39;55.34;96073.03;5066246;28;20411;-73
2024/01/28 03:58:21;;;;;;;6.25;2.83;;;;;;;2.27;55.71;96062.34;5047874;28;20111;-74
2024/01/28 04:00:47;;;;;;;6.63;2.80;;;;;;;2.27;55.92;96081.31;5049909;28;20402;-74
2024/01/28 04:03:13;;;;;;;5.03;2.70;;;;;;;2.30;55.81;96080.63;5064688;28;20511;-73
2024/01/28 04:05:38;;;;;;;8.32;3.53;;;;;;;2.32;55.66;96084.53;5066149;28;20046;-74
2024/01/28 04:08:04;;;;;;;3.22;2.35;;;;;;;2.26;55.66;96072.41;5065720;28;20060;-73
2024/01/28 04:10:29;;;;;;;5.13;2.60;;;;;;;2.31;55.61;96088.41;5066743;28;20021;-75
2024/01/28 04:12:54;;;;;;;5.50;2.72;;;;;;;2.30;55.52;96091.47;5067560;28;20028;-74
2024/01/28 04:15:20;;;;;;;6.40;3.00;;;;;;;2.17;55.73;96096.22;5064519;28;20036;-73
2024/01/28 04:17:45;;;;;;;5.65;3.15;;;;;;;2.19;55.67;96098.59;5067667;28;20029;-74
2024/01/28 04:20:11;;;;;;;4.65;2.70;;;;;;;2.18;55.91;96103.25;5066005;28;20032;-74
2024/01/28 04:22:36;;;;;;;6.60;3.00;;;;;;;2.12;55.99;96102.72;5049058;28;20123;-74
2024/01/28 04:25:02;;;;;;;3.30;2.45;;;;;;;2.14;55.86;96113.22;5065975;28;20032;-74
2024/01/28 04:27:27;;;;;;;7.47;3.20;;;;;;;2.14;55.76;96105.09;5067197;28;20036;-74
2024/01/28 04:29:53;;;;;;;3.65;2.58;;;;;;;2.16;55.61;96110.94;5065702;28;20119;-75
2024/01/28 04:32:18;;;;;;;5.45;3.08;;;;;;;2.19;55.51;96102.09;5066065;28;20486;-73
2024/01/28 04:34:43;;;;;;;5.25;2.97;;;;;;;2.17;55.59;96109.00;5065921;28;20028;-73
2024/01/28 04:37:09;;;;;;;5.82;2.88;;;;;;;2.10;55.65;96120.50;5064338;28;20020;-74
2024/01/28 04:39:35;;;;;;;8.68;3.13;;;;;;;1.95;56.13;96124.00;5065506;28;20063;-75
2024/01/28 04:42:01;;;;;;;7.28;3.55;;;;;;;1.86;56.44;96118.78;5065691;28;20024;-73
2024/01/28 04:44:26;;;;;;;8.25;3.40;;;;;;;1.72;56.86;96121.94;5065701;28;20016;-75
2024/01/28 04:46:52;;;;;;;6.55;2.80;;;;;;;1.78;56.82;96122.47;5066353;28;20043;-74
2024/01/28 04:49:17;;;;;;;5.07;3.25;;;;;;;1.74;56.97;96122.38;5065836;28;20053;-73
2024/01/28 04:51:43;;;;;;;6.90;3.05;;;;;;;1.78;56.85;96127.91;5067231;28;20032;-73
2024/01/28 04:54:08;;;;;;;4.70;3.05;;;;;;;1.72;57.15;96121.94;5064056;28;20063;-73
2024/01/28 04:56:33;;;;;;;6.13;3.45;;;;;;;1.66;56.96;96115.19;5065555;28;20029;-73
2024/01/28 04:59:02;;;;;;;6.47;2.90;;;;;;;1.62;57.12;96113.56;5064118;28;20095;-74
2024/01/28 05:01:27;;;;;;;4.00;2.75;;;;;;;1.60;57.00;96111.19;5065515;28;20040;-74
2024/01/28 05:03:52;;;;;;;5.90;3.03;;;;;;;1.57;57.20;96120.81;5064640;28;20029;-74
2024/01/28 05:06:18;;;;;;;3.30;3.00;;;;;;;1.57;57.16;96123.50;5065305;28;20031;-73
2024/01/28 05:08:43;;;;;;;6.55;3.05;;;;;;;1.51;57.37;96134.97;5048335;28;20027;-74
2024/01/28 05:11:09;;;;;;;6.28;3.03;;;;;;;1.49;57.35;96129.91;5064413;28;20051;-74
2024/01/28 05:13:36;;;;;;;4.93;3.00;;;;;;;1.49;57.72;96132.63;5065527;28;20024;-74
2024/01/28 05:16:01;;;;;;;5.63;2.83;;;;;;;1.43;57.49;96131.28;5065378;28;20025;-74
2024/01/28 05:18:26;;;;;;;6.18;3.40;;;;;;;1.34;57.80;96133.38;5065353;28;20352;-73
2024/01/28 05:20:52;;;;;;;5.85;3.13;;;;;;;1.34;57.76;96136.09;5063925;28;20037;-74
2024/01/28 05:23:17;;;;;;;7.32;3.17;;;;;;;1.37;57.74;96134.59;5065448;28;20056;-74
2024/01/28 05:25:42;;;;;;;4.55;3.42;;;;;;;1.35;57.81;96137.66;5065754;28;20028;-74
2024/01/28 05:28:08;;;;;;;8.10;3.95;;;;;;;1.30;57.98;96144.13;5064834;28;20434;-74
2024/01/28 05:30:34;;;;;;;6.78;3.50;;;;;;;1.31;58.06;96150.31;5065626;28;20025;-74
2024/01/28 05:33:00;;;;;;;6.80;3.92;;;;;;;1.37;57.79;96156.28;5047006;28;20348;-73
2024/01/28 05:35:25;;;;;;;7.65;4.28;;;;;;;1.19;58.18;96159.31;5048489;28;20142;-74
2024/01/28 05:37:51;;;;;;;7.40;3.13;;;;;;;1.22;58.21;96164.03;5063580;28;20025;-74
2024/01/28 05:40:17;;;;;;;5.05;3.50;;;;;;;1.16;58.04;96162.72;5066695;28;20031;-74
2024/01/28 05:42:43;;;;;;;5.97;3.40;;;;;;;1.19;58.07;96164.72;5063843;28;20050;-74
2024/01/28 05:45:09;;;;;;;5.13;3.03;;;;;;;1.19;58.00;96153.88;5065170;28;20028;-74
2024/01/28 05:47:34;;;;;;;4.68;2.80;;;;;;;1.15;58.18;96158.44;5065778;28;20113;-74
2024/01/28 05:50:00;;;;;;;3.92;2.92;;;;;;;1.19;58.10;96170.13;5064115;28;20451;-74
2024/01/28 05:52:25;;;;;;;6.38;3.17;;;;;;;1.24;57.96;96177.22;5066352;28;20398;-75
2024/01/28 05:54:51;;;;;;;4.55;3.38;;;;;;;1.18;58.08;96176.69;5063618;28;20158;-74
2024/01/28 05:57:17;;;;;;;4.15;2.95;;;;;;;1.27;58.13;96185.47;5065223;28;20043;-73
2024/01/28 05:59:42;;;;;;;7.28;3.25;;;;;;;1.22;58.07;96185.72;5064627;28;20047;-74
2024/01/28 06:02:07;;;;;;;5.10;3.00;;;;;;;1.17;58.20;96180.53;5066760;28;20029;-74
2024/01/28 06:04:33;;;;;;;5.00;3.30;;;;;;;1.21;58.29;96186.84;5050823;28;20109;-74
2024/01/28 06:06:59;;;;;;;5.18;3.40;;;;;;;1.22;58.35;96183.00;5069303;28;20535;-75
2024/01/28 06:09:25;;;;;;;6.78;4.07;;;;;;;1.29;58.16;96185.91;5068659;28;20146;-74
2024/01/28 06:11:51;;;;;;;4.75;3.38;;;;;;;1.35;58.03;96194.56;5068462;28;20017;-74
2024/01/28 06:14:16;;;;;;;6.38;3.38;;;;;;;1.46;58.06;96201.06;5068576;28;20565;-75
2024/01/28 06:16:42;;;;;;;6.93;3.35;;;;;;;1.52;57.75;96198.88;5066525;28;20093;-73
2024/01/28 06:19:07;;;;;;;6.85;3.67;;;;;;;1.49;57.70;96202.28;5069734;28;20378;-74
2024/01/28 06:21:33;;;;;;;8.30;4.45;;;;;;;1.52;57.73;96205.09;5066869;28;20024;-74
2024/01/28 06:23:59;;;;;;;7.97;3.72;;;;;;;1.61;57.54;96213.06;5067806;28;20055;-73
2024/01/28 06:26:24;;;;;;;3.45;3.10;;;;;;;1.64;57.23;96212.34;5051077;28;20434;-74
2024/01/28 06:28:50;;;;;;;5.65;3.75;;;;;;;1.66;57.24;96201.94;5066905;28;20473;-73
2024/01/28 06:31:15;;;;;;;6.38;4.35;;;;;;;1.74;57.17;96208.34;5069867;28;20016;-74
2024/01/28 06:33:41;;;;;;;7.28;4.10;;;;;;;1.81;57.07;96205.81;5067898;28;20329;-74
2024/01/28 06:36:07;;;;;;;6.85;3.63;;;;;;;1.80;56.40;96205.03;5069475;28;20021;-74
2024/01/28 06:38:32;;;;;;;7.55;3.95;;;;;;;1.84;56.69;96205.13;5066040;28;20035;-75
2024/01/28 06:40:58;;;;;;;5.93;3.40;;;;;;;1.90;56.49;96213.78;5067979;28;20202;-74
2024/01/28 06:43:26;;;;;;;4.95;3.75;;;;;;;1.90;56.52;96211.09;5066898;28;20127;-74
2024/01/28 06:45:52;;;;;;;7.18;4.30;;;;;;;1.93;56.40;96208.44;5067096;28;20426;-74
2024/01/28 06:48:18;;;;;;;6.38;3.78;;;;;;;1.94;56.48;96209.22;5067615;28;20549;-76
2024/01/28 06:50:44;;;;;;;5.85;3.72;;;;;;;1.88;56.50;96207.91;5049097;28;20032;-74
2024/01/28 06:53:10;;;;;;;4.93;3.40;;;;;;;1.99;56.45;96219.81;5067785;28;20429;-74
2024/01/28 06:55:35;;;;;;;5.93;3.75;;;;;;;1.99;56.41;96225.22;5065749;28;20025;-74
2024/01/28 06:58:01;;;;;;;8.38;3.75;;;;;;;1.95;56.61;96224.34;5068955;28;20107;-74
2024/01/28 07:00:26;;;;;;;5.78;4.40;;;;;;;1.93;56.64;96235.56;5067534;28;20082;-74
2024/01/28 07:02:53;;;;;;;7.43;4.63;;;;;;;2.01;56.71;96233.84;5050598;28;20028;-74
2024/01/28 07:05:22;;;;;;;7.32;4.43;;;;;;;2.08;56.60;96232.06;5067429;28;20075;-74
2024/01/28 07:07:47;;;;;;;6.63;4.55;;;;;;;2.03;56.59;96229.63;5067199;28;20022;-73
2024/01/28 07:10:13;;;;;;;10.02;5.05;;;;;;;2.08;56.31;96229.34;5067389;28;20032;-74
2024/01/28 07:12:39;;;;;;;6.22;4.45;;;;;;;2.06;56.44;96223.47;5065463;28;20112;-74
2024/01/28 07:15:05;;;;;;;6.15;4.45;;;;;;;2.05;56.75;96240.09;5067353;28;20032;-74
2024/01/28 07:17:31;;;;;;;7.20;4.13;;;;;;;2.10;56.55;96234.44;5065491;28;20025;-73
2024/01/28 07:19:56;;;;;;;8.13;5.35;;;;;;;2.00;56.88;96241.16;5050255;28;20039;-75
2024/01/28 07:22:22;;;;;;;9.02;5.20;;;;;;;2.05;56.58;96245.53;5066402;28;20107;-75
2024/01/28 07:24:48;;;;;;;7.63;5.30;;;;;;;2.03;56.79;96240.47;5065738;28;20020;-75
2024/01/28 07:27:13;;;;;;;7.75;5.32;;;;;;;2.02;56.66;96238.91;5067043;28;20494;-75
2024/01/28 07:29:39;;;;;;;8.65;5.47;;;;;;;2.09;56.72;96249.91;5066478;28;20431;-74
2024/01/28 07:32:04;;;;;;;7.70;4.70;;;;;;;2.08;56.57;96253.78;5050195;28;20102;-76
2024/01/28 07:34:30;;;;;;;8.93;4.47;;;;;;;2.18;56.14;96240.81;5064909;28;20027;-74
2024/01/28 07:36:57;;;;;;;9.15;4.60;;;;;;;2.23;56.13;96238.63;5068213;28;20440;-76
2024/01/28 07:39:22;;;;;;;9.60;5.22;;;;;;;2.22;55.99;96244.41;5065434;28;20037;-74
2024/01/28 07:41:48;;;;;;;5.45;4.20;;;;;;;2.22;56.11;96250.59;5067377;28;20399;-74
2024/01/28 07:44:13;;;;;;;9.75;4.50;;;;;;;2.20;55.99;96258.31;5068311;28;20032;-74
2024/01/28 07:46:38;;;;;;;7.25;4.57;;;;;;;2.22;56.16;96260.69;5064889;28;20056;-73
2024/01/28 07:49:04;;;;;;;9.95;5.03;;;;;;;2.38;56.00;96264.19;5066715;28;20052;-74
2024/01/28 07:51:29;;;;;;;6.28;4.95;;;;;;;2.37;55.80;96266.09;5064734;28;20063;-74
2024/01/28 07:53:55;;;;;;;8.85;4.60;;;;;;;2.46;55.72;96262.41;5067969;28;20035;-74
2024/01/28 07:56:20;;;;;;;6.78;5.00;;;;;;;2.57;55.46;96264.22;5066294;28;20032;-75
2024/01/28 07:58:46;;;;;;;8.52;4.90;;;;;;;2.67;55.24;96268.34;5066156;28;20025;-74
2024/01/28 08:01:11;;;;;;;10.32;6.05;;;;;;;2.82;55.08;96272.97;5067450;28;20060;-76
2024/01/28 08:03:37;;;;;;;9.38;5.25;;;;;;;2.92;54.64;96263.44;5066490;28;20478;-75
2024/01/28 08:06:04;;;;;;;9.93;5.85;;;;;;;3.10;54.42;96267.38;5066742;28;20028;-74
2024/01/28 08:08:30;;;;;;;11.63;6.03;;;;;;;3.20;54.25;96268.72;5064558;28;20031;-74
2024/01/28 08:10:55;;;;;;;9.80;5.05;;;;;;;3.29;53.96;96263.88;5066270;28;20028;-73
2024/01/28 08:13:22;;;;;;;12.15;6.43;;;;;;;3.37;53.80;96273.72;5064648;28;20024;-75
2024/01/28 08:15:48;;;;;;;11.65;5.38;;;;;;;3.50;53.69;96276.28;5066123;28;20037;-75
2024/01/28 08:18:13;;;;;;;6.03;4.60;;;;;;;3.67;52.84;96275.84;5065272;28;20029;-76
2024/01/28 08:20:39;;;;;;;7.47;3.88;;;;;;;3.71;52.49;96271.28;5066694;28;20031;-75
2024/01/28 08:23:04;;;;;;;6.03;4.00;;;;;;;3.76;52.37;96273.69;5067360;28;20040;-75
2024/01/28 08:25:29;;;;;;;7.78;3.70;;;;;;;3.79;52.55;96267.56;5065223;28;20016;-75
2024/01/28 08:27:56;;;;;;;7.57;4.00;;;;;;;3.81;52.31;96262.53;5067416;28;20448;-75
2024/01/28 08:30:23;;;;;;;5.60;4.07;;;;;;;3.89;51.83;96277.81;5047660;28;20028;-73
2024/01/28 08:32:49;;;;;;;7.75;3.83;;;;;;;3.96;51.52;96272.53;5049155;28;20359;-75
2024/01/28 08:35:14;;;;;;;5.70;3.90;;;;;;;3.95;51.35;96257.34;5064665;28;20029;-74
2024/01/28 08:37:40;;;;;;;5.35;3.78;;;;;;;4.18;50.97;96275.63;5065425;28;20020;-75
2024/01/28 08:40:08;;;;;;;6.07;3.88;;;;;;;4.18;50.55;96284.56;5065262;28;20029;-73
2024/01/28 08:42:34;;;;;;;8.20;4.28;;;;;;;4.18;50.92;96276.41;5064395;28;20529;-74
2024/01/28 08:44:59;;;;;;;11.27;3.95;;;;;;;4.22;50.71;96284.63;5065848;28;20047;-76
2024/01/28 08:47:25;;;;;;;5.78;4.00;;;;;;;4.29;50.38;96283.97;5063999;28;20663;-75
2024/01/28 08:49:50;;;;;;;5.97;3.50;;;;;;;4.25;50.25;96260.22;5065589;28;20398;-73
2024/01/28 08:52:16;;;;;;;6.78;3.47;;;;;;;4.44;49.99;96288.50;5064250;28;20367;-73
2024/01/28 08:54:45;;;;;;;9.02;3.95;;;;;;;4.50;49.80;96287.84;5065615;28;20029;-73
2024/01/28 08:57:11;;;;;;;5.97;3.67;;;;;;;4.62;49.53;96286.06;5065330;28;20029;-75
2024/01/28 08:59:36;;;;;;;6.25;3.97;;;;;;;4.79;49.39;96293.72;5064602;28;20089;-74
2024/01/28 09:02:02;;;;;;;8.02;4.22;;;;;;;4.94;48.73;96292.78;5049060;28;20602;-74
2024/01/28 09:04:27;;;;;;;4.65;4.20;;;;;;;5.12;48.58;96290.31;5065557;28;20443;-74
2024/01/28 09:06:53;;;;;;;8.00;3.60;;;;;;;5.33;47.57;96295.25;5065374;28;20036;-75
2024/01/28 09:09:18;;;;;;;5.43;3.15;;;;;;;5.53;47.33;96299.41;5064004;28;20166;-75
2024/01/28 09:11:44;;;;;;;5.95;3.95;;;;;;;5.63;46.82;96302.66;5066711;28;20123;-73
2024/01/28 09:14:09;;;;;;;6.53;3.35;;;;;;;5.63;46.59;96306.19;5064488;28;20024;-75
2024/01/28 09:16:35;;;;;;;5.85;3.55;;;;;;;5.70;46.50;96302.75;5048159;28;20032;-75
2024/01/28 09:19:03;;;;;;;5.65;2.80;;;;;;;5.75;46.11;96292.28;5066459;28;20029;-73
2024/01/28 09:21:29;;;;;;;5.30;3.05;;;;;;;5.78;45.81;96299.72;5065304;28;20024;-74
2024/01/28 09:23:55;;;;;;;4.68;3.15;;;;;;;6.15;44.87;96295.47;5065062;28;20017;-74
2024/01/28 09:26:20;;;;;;;5.07;3.13;;;;;;;6.25;44.50;96289.31;5063623;28;20048;-75
2024/01/28 09:28:46;;;;;;;4.75;3.47;;;;;;;6.22;44.91;96285.38;5064915;28;20104;-74
2024/01/28 09:31:12;;;;;;;4.70;3.03;;;;;;;6.21;44.25;96293.97;5046900;28;20021;-74
2024/01/28 09:33:37;;;;;;;5.97;3.15;;;;;;;6.18;43.94;96297.44;5048482;28;20021;-75
2024/01/28 09:36:03;;;;;;;4.97;2.90;;;;;;;6.09;44.21;96293.06;5064629;28;20047;-74
2024/01/28 09:38:28;;;;;;;3.90;2.47;;;;;;;6.17;44.09;96295.88;5068062;28;20017;-74
2024/01/28 09:40:53;;;;;;;5.43;3.17;;;;;;;6.15;44.35;96298.97;5070269;28;20054;-74
2024/01/28 09:43:28;;;;;;;7.35;3.20;;;;;;;6.08;44.71;96288.78;5068928;28;20021;-74
2024/01/28 09:45:54;;;;;;;6.32;3.13;;;;;;;6.11;45.03;96300.88;5070188;28;20034;-74
2024/01/28 09:48:20;;;;;;;6.32;3.83;;;;;;;6.09;45.39;96298.53;5067122;28;20053;-75
2024/01/28 09:50:45;;;;;;;4.20;3.55;;;;;;;6.00;45.36;96287.13;5068587;28;20028;-73
2024/01/28 09:53:13;;;;;;;6.25;3.60;;;;;;;6.00;45.69;96295.31;5068015;28;20060;-73
2024/01/28 09:55:38;;;;;;;6.20;3.10;;;;;;;5.99;45.64;96290.22;5067842;28;20108;-73
2024/01/28 09:58:04;;;;;;;6.25;3.70;;;;;;;5.94;46.20;96285.88;5068896;28;20020;-73
2024/01/28 10:00:29;;;;;;;5.63;3.33;;;;;;;5.86;46.30;96285.00;5067335;28;20036;-74
2024/01/28 10:02:55;;;;;;;7.28;4.03;;;;;;;5.90;46.09;96285.03;5068419;28;20122;-74
2024/01/28 10:05:20;;;;;;;6.65;3.28;;;;;;;5.91;46.15;96286.66;5050320;28;20405;-74
2024/01/28 10:07:47;;;;;;;7.70;4.00;;;;;;;5.89;46.47;96283.44;5069661;28;20028;-74
2024/01/28 10:10:17;;;;;;;7.85;3.90;;;;;;;5.78;46.15;96291.53;5067142;28;20184;-74
2024/01/28 10:12:47;;;;;;;7.47;4.10;;;;;;;5.64;46.61;96290.59;5051259;28;20386;-74
2024/01/28 10:15:17;;;;;;;7.22;4.25;;;;;;;5.59;46.57;96289.75;5068322;28;20475;-75
2024/01/28 10:17:48;;;;;;;6.63;4.47;;;;;;;5.58;46.81;96290.13;5050006;28;20419;-74
2024/01/28 10:20:18;;;;;;;6.07;3.65;;;;;;;5.52;46.49;96288.88;5068338;28;20363;-74
2024/01/28 10:22:44;;;;;;;6.88;4.15;;;;;;;5.51;46.52;96292.78;5068056;28;20040;-75
2024/01/28 10:25:11;;;;;;;6.60;4.55;;;;;;;5.50;46.68;96283.78;5069460;28;20024;-75
2024/01/28 10:27:36;;;;;;;14.05;4.07;;;;;;;5.46;46.63;96282.97;5067087;28;20048;-74
2024/01/28 10:30:03;;;;;;;9.90;4.28;;;;;;;5.40;46.98;96273.56;5067869;28;20082;-74
2024/01/28 10:32:29;;;;;;;7.05;3.88;;;;;;;5.35;47.26;96275.81;5068071;28;20462;-76
2024/01/28 10:34:54;;;;;;;5.85;4.18;;;;;;;5.28;47.06;96268.34;5067991;28;20021;-75
2024/01/28 10:37:20;;;;;;;7.35;3.70;;;;;;;5.22;47.26;96270.59;5069507;28;20030;-75
2024/01/28 10:39:48;;;;;;;8.90;4.18;;;;;;;5.28;47.12;96273.78;5066103;28;20033;-75
2024/01/28 10:42:16;;;;;;;6.47;3.28;;;;;;;5.12;47.20;96290.31;5051361;28;20558;-75
2024/01/28 10:44:47;;;;;;;3.65;2.97;;;;;;;5.12;47.18;96284.09;5066326;28;20043;-75
2024/01/28 10:47:13;;;;;;;6.15;3.53;;;;;;;5.12;47.08;96271.22;5067181;28;20103;-75
2024/01/28 10:49:40;;;;;;;4.80;3.40;;;;;;;4.96;47.59;96279.56;5067641;28;20032;-74
2024/01/28 10:52:07;;;;;;;9.05;4.25;;;;;;;5.03;47.85;96278.88;5066695;28;20400;-74
2024/01/28 10:54:33;;;;;;;6.57;3.92;;;;;;;5.02;47.92;96269.94;5067756;28;20033;-73
2024/01/28 10:56:59;;;;;;;4.78;4.10;;;;;;;5.10;48.79;96264.56;5065838;28;20093;-75
2024/01/28 10:59:26;;;;;;;5.40;3.78;;;;;;;5.14;48.84;96270.84;5067804;28;20036;-74
2024/01/28 11:01:52;;;;;;;6.97;4.35;;;;;;;5.19;48.92;96273.25;5049209;28;20090;-73
2024/01/28 11:04:17;;;;;;;6.50;4.25;;;;;;;5.23;48.94;96274.09;5067530;28;20032;-74
2024/01/28 11:06:43;;;;;;;7.88;4.32;;;;;;;5.30;48.09;96277.69;5066538;28;20056;-73
2024/01/28 11:09:08;;;;;;;5.60;3.95;;;;;;;5.27;48.12;96275.69;5066465;28;20032;-74
2024/01/28 11:11:33;;;;;;;5.47;3.75;;;;;;;5.18;48.26;96277.94;5068817;28;20344;-74
2024/01/28 11:14:05;;;;;;;7.28;4.28;;;;;;;5.11;48.47;96268.88;5065539;28;20040;-74
2024/01/28 11:16:30;;;;;;;7.57;5.13;;;;;;;5.13;48.58;96267.34;5067558;28;20028;-76
2024/01/28 11:19:06;;;;;;;4.60;3.63;;;;;;;5.11;48.26;96266.94;5048775;28;20075;-75
2024/01/28 11:21:35;;;;;;;5.43;3.60;;;;;;;5.04;48.04;96253.19;5067545;28;20029;-74
2024/01/28 11:24:10;;;;;;;7.25;4.50;;;;;;;5.00;48.12;96261.34;5066570;28;20471;-75
2024/01/28 11:26:38;;;;;;;8.73;4.68;;;;;;;4.98;48.23;96268.28;5049328;28;20115;-74
2024/01/28 11:29:08;;;;;;;8.95;4.65;;;;;;;4.91;48.29;96257.31;5050650;28;20127;-75
2024/01/28 11:31:36;;;;;;;9.90;4.55;;;;;;;4.95;48.51;96267.09;5065535;28;20043;-74
2024/01/28 11:34:17;;;;;;;7.53;4.90;;;;;;;4.93;48.58;96257.72;5066946;28;20486;-75